This is the latest recevied weather packets stored in our database for station/object N3AVN. If no packets are shown the sender has not sent any weather packets the latest 1 day(s).
| Time | Temp. | Humidity | Pressure | Rain* | Wind** | Luminosity | Snow |
|---|---|---|---|---|---|---|---|
| 1777987422 | 15° C | 84% | 1008.7 hPa | 0 mm | 0 m/s | 111 W/m² | - |
| 1777987119 | 15° C | 84% | 1008.7 hPa | 0 mm | 0.89 m/s, 248° | 160 W/m² | - |
| 1777986817 | 14.44° C | 85% | 1008.7 hPa | 0 mm | 0.89 m/s, 75° | 136 W/m² | - |
| 1777986514 | 14.44° C | 87% | 1009.1 hPa | 0 mm | 0 m/s | 137 W/m² | - |
| 1777986212 | 14.44° C | 86% | 1008.7 hPa | 0 mm | 0.89 m/s, 217° | 93 W/m² | - |
| 1777985909 | 14.44° C | 84% | 1008.6 hPa | 0 mm | 1.79 m/s, 81° | 43 W/m² | - |
| 1777985606 | 15° C | 80% | 1009.2 hPa | 0 mm | 2.68 m/s, 258° | 65 W/m² | - |
| 1777985304 | 15.56° C | 79% | 1009.3 hPa | 0 mm | 0.89 m/s, 32° | 141 W/m² | - |
| 1777985001 | 15° C | 80% | 1009.1 hPa | 0 mm | 0 m/s | 147 W/m² | - |
| 1777984697 | 15° C | 79% | 1008.8 hPa | 0 mm | 1.34 m/s, 238° | 104 W/m² | - |
| 1777984393 | 15° C | 79% | 1009.1 hPa | 0 mm | 2.24 m/s, 124° | 113 W/m² | - |
| 1777984089 | 15.56° C | 78% | 1008.8 hPa | 0 mm | 1.79 m/s, 103° | 274 W/m² | - |
| 1777983787 | 15° C | 80% | 1009.1 hPa | 0 mm | 0.45 m/s, 151° | 232 W/m² | - |
| 1777983483 | 15° C | 80% | 1009.1 hPa | 0 mm | 1.79 m/s, 150° | 235 W/m² | - |
| 1777983180 | 14.44° C | 82% | 1009.2 hPa | 0 mm | 0.45 m/s, 345° | 203 W/m² | - |
| 1777982876 | 13.89° C | 84% | 1009.1 hPa | 0 mm | 2.24 m/s, 138° | 161 W/m² | - |
| 1777982573 | 13.89° C | 84% | 1009.2 hPa | 0 mm | 2.24 m/s, 81° | 105 W/m² | - |
| 1777982271 | 13.89° C | 84% | 1008.9 hPa | 0 mm | 2.68 m/s, 157° | 161 W/m² | - |
| 1777981969 | 13.33° C | 85% | 1009.1 hPa | 0 mm | 0.45 m/s, 15° | 138 W/m² | - |
| 1777981666 | 13.33° C | 86% | 1009 hPa | 0 mm | 1.79 m/s, 210° | 100 W/m² | - |
| 1777981361 | 12.78° C | 88% | 1009.2 hPa | 0 mm | 1.79 m/s, 76° | 103 W/m² | - |
| 1777981059 | 12.78° C | 88% | 1009.4 hPa | 0 mm | 0.89 m/s, 24° | 55 W/m² | - |
| 1777980756 | 12.22° C | 89% | 1009.3 hPa | 0 mm | 0 m/s | 114 W/m² | - |
| 1777980451 | 12.22° C | 90% | 1009.1 hPa | 0 mm | 0.89 m/s, 245° | 83 W/m² | - |
| 1777980150 | 11.67° C | 91% | 1009.1 hPa | 0 mm | 1.79 m/s, 116° | 91 W/m² | - |
* Rain latest hour (hover to see other rain measurements)
** Current wind speed in m/s (hover to see current wind gust speed)